Yellowstone National Park, WY

12:29 PM MDT on August 29, 2014 (GMT -0600)
HADS FIREHOLE RIVER AT OLD FAITHFUL A WY US USGS | Change Station
CLOSE
Current Station
Personal Weather Station
Location: Yellowstone National Park, WY
Elevation: 7350 ft
Nearby Weather Stations

Elev 7350 ft 44.46 °N, 110.82 °W | Updated 29 minutes ago

Clear
Clear
67 °F
Feels Like 67 °F
N
Wind Variable Wind from North
Gusts 0.0 mph

Today
High -- | Low -- °F
--% Chance of Precip.
Yesterday
High -- | Low -- °F
Precip. -- in
6:42 AM 8:04 PM
Waxing Crescent, 15% visible
Pressure 30.19 in
Visibility 10.0 miles
Clouds Clear
Dew Point Not available.
Humidity Not available.
Rainfall -999.00 in
Snow Depth 0 in
UV 8 out of 12
Pollen 6.90 out of 12
Air Quality Not available.
Flu Activity Not available.
METAR KWYS 291810Z AUTO 22010G14KT 10SM CLR 19/07 A3019 RMK AO2

More Conditions Fewer Conditions

Pressure 30.19 in
Visibility 10.0 miles
Clouds Clear
Dew Point Not available.
Humidity Not available.
Rainfall -999.00 in
Snow Depth 0 in
UV 8 out of 12
Pollen 6.90 out of 12
Air Quality Not available.
Flu Activity Not available.
METAR KWYS 291810Z AUTO 22010G14KT 10SM CLR 19/07 A3019 RMK AO2

More Conditions Fewer Conditions

10-Day Weather Forecast

Almanac

Astronomy

Aug. 29, 2014 Rise Set
Actual Time 6:42 AM MDT 8:04 PM MDT
Civil Twilight 6:12 AM MDT 8:35 PM MDT
Nautical Twilight 5:35 AM MDT 9:11 PM MDT
Astronomical Twilight 4:56 AM MDT 9:49 PM MDT
Moon 10:46 AM MDT 9:53 PM MDT
Length of Visible Light 14h 22m
Length of Day
13h 22m
Tomorrow will be 2m 57s shorter.
Waxing Crescent, 15% of the Moon is Illuminated
Today
Waxing Crescent
Sep 2
First Quarter
Sep 8
Full
Sep 15
Last Quarter
Sep 24
New

Today's Extremes

State Highs State Lows

Community

WunderPhotos

Upload Photos

1,748,310 photos uploaded!

Nearby

Snow Depth

Station Depth Elevation
Lewis Lake Divide 0 in 7850 ft
Parker Peak 0 in 9400 ft
Phillips Bench 0 in 8200 ft
Granite Creek 0 in 6770 ft
Marquette 1 in 8760 ft

Earthquake Activity

City Distance Mag. Time & Date
No recent earthquake activity has been reported nearby.
Minimum magnitude displayed is 2.5.

Coastal Water Temperatures

Place Temperature
No Stations Reporting

Nearby Weather Stations